Main page
METAR-TAF:

METAR-TAF

Airports :

Maribor, Slovenia

Maribor Edvard Rusjan Airport

latitude: 46-29N, longitude: 015-41E, elevation: 264 m

Current weather observation

The report was made 26 minutes ago, at 15:00 UTC
Wind 6 kt from the Southwest
Temperature 6°C
Humidity 56%
Pressure 1026 hPa
Visibility 10 km or more
no clouds below 1500 m and no cumulonimbus

METAR: LJMB 231500Z 23006KT CAVOK 06/M02 Q1026

Time: 16:26 (15:26 UTC)

Forecast

The report was made 1 hour and 26 minutes ago, at 14:00 UTC
Forecast valid from 23 at 15 UTC to 24 at 15 UTC
Wind 5 kt from the South
Visibility 10 km or more
no clouds below 1500 m and no cumulonimbus

TAF: LJMB 231400Z 2315/2415 17005KT CAVOK

Weather observations and forecasts of more than 4000 airports (METAR and TAF reports).

The available stations are represented by yellow and red dots on the map.

Hover mouse over dot to see the name of the station.

Then click to see weather observations and forecasts.

To change the map : click on the green buttons with a black cross to zoom in, on the green button with a dash to zoom out, or on the green arrows for adjacent maps.


METAR-TAF: